createdAt,value
2018-09-19T00:00:42.519Z,22.13
2018-09-19T00:01:42.659Z,22.06
2018-09-19T00:02:42.603Z,22.06
2018-09-19T00:03:42.542Z,22.06
2018-09-19T00:04:42.564Z,22
2018-09-19T00:05:43.067Z,22.06
2018-09-19T00:06:42.496Z,22
2018-09-19T00:07:42.572Z,21.94
2018-09-19T00:08:43.423Z,22
2018-09-19T00:09:42.507Z,21.94
2018-09-19T00:10:42.523Z,21.94
2018-09-19T00:11:42.473Z,21.94
2018-09-19T00:12:42.477Z,21.94
2018-09-19T00:13:42.604Z,21.94
2018-09-19T00:14:42.682Z,21.94
2018-09-19T00:15:42.790Z,21.87
2018-09-19T00:16:42.493Z,21.94
2018-09-19T00:17:42.625Z,21.94
2018-09-19T00:18:42.497Z,21.87
2018-09-19T00:19:43.025Z,21.94
2018-09-19T00:20:42.522Z,21.87
2018-09-19T00:21:42.545Z,21.87
2018-09-19T00:22:42.461Z,21.87
2018-09-19T00:23:42.471Z,21.87
2018-09-19T00:24:42.639Z,21.87
2018-09-19T00:25:42.700Z,21.81
2018-09-19T00:26:42.828Z,21.81
2018-09-19T00:27:42.548Z,21.81
2018-09-19T00:28:42.496Z,21.81
2018-09-19T00:29:42.629Z,21.81
2018-09-19T00:30:42.479Z,21.81
2018-09-19T00:31:42.770Z,21.81
2018-09-19T00:32:42.693Z,21.75
2018-09-19T00:33:42.484Z,21.81
2018-09-19T00:34:42.497Z,21.75
2018-09-19T00:35:42.554Z,21.75
2018-09-19T00:36:42.550Z,21.75
2018-09-19T00:37:42.662Z,21.69
2018-09-19T00:38:42.715Z,21.69
2018-09-19T00:39:42.522Z,21.69
2018-09-19T00:40:42.528Z,21.69
2018-09-19T00:41:42.499Z,21.69
2018-09-19T00:42:42.604Z,21.69
2018-09-19T00:43:42.574Z,21.69
2018-09-19T00:44:43.130Z,21.69
2018-09-19T00:45:42.499Z,21.62
2018-09-19T00:46:42.575Z,21.62
2018-09-19T00:47:42.531Z,21.62
2018-09-19T00:48:42.721Z,21.56
2018-09-19T00:49:42.547Z,21.56
2018-09-19T00:50:42.500Z,21.5
2018-09-19T00:51:42.941Z,21.56
2018-09-19T00:52:42.780Z,21.56
2018-09-19T00:53:42.542Z,21.5
2018-09-19T00:54:42.643Z,21.56
2018-09-19T00:55:42.532Z,21.5
2018-09-19T00:56:42.774Z,21.5
2018-09-19T00:57:42.502Z,21.5
2018-09-19T00:58:42.729Z,21.5
2018-09-19T00:59:42.533Z,21.44
2018-09-19T01:00:42.978Z,21.5
2018-09-19T01:01:42.540Z,21.44
2018-09-19T01:02:42.512Z,21.44
2018-09-19T01:03:42.546Z,21.44
2018-09-19T01:04:42.547Z,21.44
2018-09-19T01:05:42.576Z,21.44
2018-09-19T01:06:42.559Z,21.37
2018-09-19T01:07:42.597Z,21.37
2018-09-19T01:08:42.571Z,21.37
2018-09-19T01:09:42.556Z,21.31
2018-09-19T01:10:42.814Z,21.25
2018-09-19T01:11:42.534Z,21.31
2018-09-19T01:12:42.566Z,21.25
2018-09-19T01:13:42.619Z,21.25
2018-09-19T01:14:42.536Z,21.25
2018-09-19T01:15:42.586Z,21.25
2018-09-19T01:16:42.530Z,21.25
2018-09-19T01:17:42.506Z,21.25
2018-09-19T01:18:42.507Z,21.19
2018-09-19T01:19:42.615Z,21.19
2018-09-19T01:20:42.753Z,21.19
2018-09-19T01:21:42.619Z,21.19
2018-09-19T01:22:42.874Z,21.12
2018-09-19T01:23:42.518Z,21.12
2018-09-19T01:24:42.522Z,21.12
2018-09-19T01:25:42.636Z,21.12
2018-09-19T01:26:42.597Z,21.06
2018-09-19T01:27:42.689Z,21.12
2018-09-19T01:28:42.568Z,21.06
2018-09-19T01:29:42.532Z,21.06
2018-09-19T01:30:42.548Z,21.06
2018-09-19T01:31:42.709Z,21.06
2018-09-19T01:32:42.884Z,21.06
2018-09-19T01:33:42.557Z,21.06
2018-09-19T01:34:42.541Z,21.06
2018-09-19T01:35:42.625Z,21.06
2018-09-19T01:36:42.724Z,21.06
2018-09-19T01:37:42.539Z,21.06
2018-09-19T01:38:42.610Z,21.06
2018-09-19T01:39:42.588Z,21
2018-09-19T01:40:42.619Z,21.06
2018-09-19T01:41:42.663Z,21
2018-09-19T01:42:42.557Z,21
2018-09-19T01:43:42.788Z,21
2018-09-19T01:44:42.688Z,21
2018-09-19T01:45:42.592Z,21
2018-09-19T01:46:42.575Z,21
2018-09-19T01:47:42.759Z,21
2018-09-19T01:48:43.481Z,21
2018-09-19T01:49:42.670Z,21
2018-09-19T01:50:42.559Z,20.94
2018-09-19T01:51:42.608Z,21
2018-09-19T01:52:42.569Z,21
2018-09-19T01:53:42.586Z,21
2018-09-19T01:54:42.733Z,21
2018-09-19T01:55:42.590Z,20.94
2018-09-19T01:56:42.584Z,21
2018-09-19T01:57:42.632Z,20.94
2018-09-19T01:58:42.898Z,20.94
2018-09-19T01:59:42.618Z,20.88
2018-09-19T02:00:42.853Z,20.88
2018-09-19T02:01:42.601Z,20.88
2018-09-19T02:02:42.954Z,20.88
2018-09-19T02:03:42.569Z,20.88
2018-09-19T02:04:42.842Z,20.88
2018-09-19T02:05:42.733Z,20.88
2018-09-19T02:06:42.580Z,20.88
2018-09-19T02:07:42.666Z,20.88
2018-09-19T02:08:43.150Z,20.81
2018-09-19T02:09:43.290Z,20.81
2018-09-19T02:10:42.650Z,20.81
2018-09-19T02:11:42.661Z,20.75
2018-09-19T02:12:42.687Z,20.75
2018-09-19T02:13:42.600Z,20.75
2018-09-19T02:14:42.605Z,20.75
2018-09-19T02:15:42.582Z,20.75
2018-09-19T02:16:42.732Z,20.75
2018-09-19T02:17:42.608Z,20.69
2018-09-19T02:18:42.756Z,20.75
2018-09-19T02:19:42.747Z,20.69
2018-09-19T02:20:42.676Z,20.69
2018-09-19T02:21:42.658Z,20.69
2018-09-19T02:22:42.682Z,20.69
2018-09-19T02:23:42.701Z,20.69
2018-09-19T02:24:42.692Z,20.62
2018-09-19T02:25:42.585Z,20.62
2018-09-19T02:26:42.658Z,20.62
2018-09-19T02:27:42.644Z,20.56
2018-09-19T02:28:43.517Z,20.56
2018-09-19T02:29:42.533Z,20.62
2018-09-19T02:30:42.624Z,20.56
2018-09-19T02:31:42.595Z,20.56
2018-09-19T02:32:42.704Z,20.56
2018-09-19T02:33:42.595Z,20.56
2018-09-19T02:34:42.592Z,20.56
2018-09-19T02:35:42.628Z,20.5
2018-09-19T02:36:42.662Z,20.5
2018-09-19T02:37:42.604Z,20.5
2018-09-19T02:38:42.597Z,20.5
2018-09-19T02:39:42.641Z,20.5
2018-09-19T02:40:42.705Z,20.5
2018-09-19T02:41:42.663Z,20.44
2018-09-19T02:42:42.676Z,20.44
2018-09-19T02:43:42.695Z,20.5
2018-09-19T02:44:42.776Z,20.44
2018-09-19T02:45:42.663Z,20.44
2018-09-19T02:46:42.710Z,20.44
2018-09-19T02:47:43.012Z,20.44
2018-09-19T02:48:42.690Z,20.44
2018-09-19T02:49:42.766Z,20.37
2018-09-19T02:50:42.630Z,20.37
2018-09-19T02:51:42.658Z,20.37
2018-09-19T02:52:42.711Z,20.37
2018-09-19T02:53:42.745Z,20.37
2018-09-19T02:54:42.726Z,20.31
2018-09-19T02:55:42.647Z,20.31
2018-09-19T02:56:42.726Z,20.31
2018-09-19T02:57:42.672Z,20.31
2018-09-19T02:58:42.808Z,20.31
2018-09-19T02:59:42.697Z,20.31
2018-09-19T03:00:42.637Z,20.31
2018-09-19T03:01:42.633Z,20.31
2018-09-19T03:02:42.708Z,20.31
2018-09-19T03:03:42.648Z,20.25
2018-09-19T03:05:42.748Z,20.25
2018-09-19T03:06:42.615Z,20.25
2018-09-19T03:07:42.799Z,20.25
2018-09-19T03:08:42.674Z,20.19
2018-09-19T03:09:42.780Z,20.25
2018-09-19T03:10:42.756Z,20.19
2018-09-19T03:11:42.794Z,20.25
2018-09-19T03:12:42.599Z,20.25
2018-09-19T03:13:42.727Z,20.19
2018-09-19T03:14:42.745Z,20.19
2018-09-19T03:15:42.658Z,20.19
2018-09-19T03:16:42.807Z,20.19
2018-09-19T03:17:44.941Z,20.25
2018-09-19T03:18:42.623Z,20.19
2018-09-19T03:19:42.683Z,20.19
2018-09-19T03:20:42.654Z,20.19
2018-09-19T03:21:42.842Z,20.19
2018-09-19T03:22:42.613Z,20.19
2018-09-19T03:23:42.675Z,20.12
2018-09-19T03:24:42.618Z,20.12
2018-09-19T03:25:42.631Z,20.12
2018-09-19T03:26:42.776Z,20.06
2018-09-19T03:27:42.910Z,20.06
2018-09-19T03:28:42.642Z,20.12
2018-09-19T03:29:42.822Z,20.06
2018-09-19T03:30:42.756Z,20.06
2018-09-19T03:31:42.894Z,20.06
2018-09-19T03:32:42.742Z,20.06
2018-09-19T03:33:42.850Z,20
2018-09-19T03:34:42.683Z,20
2018-09-19T03:35:42.630Z,20.06
2018-09-19T03:36:42.935Z,20
2018-09-19T03:37:42.670Z,20
2018-09-19T03:38:42.800Z,20
2018-09-19T03:39:42.710Z,20
2018-09-19T03:40:42.718Z,20
2018-09-19T03:41:43.672Z,20
2018-09-19T03:42:42.666Z,20
2018-09-19T03:43:42.614Z,20
2018-09-19T03:44:42.675Z,19.94
2018-09-19T03:45:42.731Z,19.94
2018-09-19T03:46:42.696Z,19.94
2018-09-19T03:47:42.768Z,19.94
2018-09-19T03:48:42.822Z,19.94
2018-09-19T03:49:42.653Z,19.94
2018-09-19T03:50:42.648Z,19.87
2018-09-19T03:51:42.689Z,19.87
2018-09-19T03:52:42.674Z,19.87
2018-09-19T03:53:42.655Z,19.81
2018-09-19T03:54:42.815Z,19.87
2018-09-19T03:55:43.083Z,19.87
2018-09-19T03:56:42.636Z,19.87
2018-09-19T03:57:42.623Z,19.87
2018-09-19T03:58:42.722Z,19.87
2018-09-19T03:59:42.724Z,19.81
2018-09-19T04:00:42.627Z,19.87
2018-09-19T04:01:42.701Z,19.87
2018-09-19T04:02:42.707Z,19.87
2018-09-19T04:03:42.651Z,19.81
2018-09-19T04:04:42.647Z,19.87
2018-09-19T04:05:42.685Z,19.87
2018-09-19T04:06:42.693Z,19.87
2018-09-19T04:07:42.687Z,19.87
2018-09-19T04:08:42.676Z,19.81
2018-09-19T04:09:42.707Z,19.87
2018-09-19T04:10:43.234Z,19.87
2018-09-19T04:11:42.670Z,19.81
2018-09-19T04:12:42.727Z,19.87
2018-09-19T04:13:42.729Z,19.81
2018-09-19T04:14:42.770Z,19.81
2018-09-19T04:15:42.657Z,19.87
2018-09-19T04:16:42.875Z,19.81
2018-09-19T04:17:43.204Z,19.81
2018-09-19T04:18:42.744Z,19.81
2018-09-19T04:19:42.749Z,19.81
2018-09-19T04:20:42.676Z,19.75
2018-09-19T04:21:42.647Z,19.75
2018-09-19T04:22:42.716Z,19.75
2018-09-19T04:23:42.677Z,19.75
2018-09-19T04:24:42.678Z,19.75
2018-09-19T04:25:42.714Z,19.75
2018-09-19T04:26:42.834Z,19.75
2018-09-19T04:27:42.665Z,19.75
2018-09-19T04:28:42.708Z,19.75
2018-09-19T04:29:42.726Z,19.69
2018-09-19T04:30:42.686Z,19.69
2018-09-19T04:31:42.821Z,19.69
2018-09-19T04:32:42.864Z,19.62
2018-09-19T04:33:42.648Z,19.69
2018-09-19T04:34:42.887Z,19.69
2018-09-19T04:35:43.081Z,19.62
2018-09-19T04:36:42.719Z,19.69
2018-09-19T04:37:43.173Z,19.69
2018-09-19T04:38:43.150Z,19.69
2018-09-19T04:39:42.704Z,19.69
2018-09-19T04:40:42.897Z,19.62
2018-09-19T04:41:42.935Z,19.62
2018-09-19T04:42:42.663Z,19.62
2018-09-19T04:43:42.723Z,19.62
2018-09-19T04:44:42.903Z,19.62
2018-09-19T04:45:43.125Z,19.56
2018-09-19T04:46:42.840Z,19.56
2018-09-19T04:47:42.664Z,19.56
2018-09-19T04:48:42.790Z,19.56
2018-09-19T04:49:42.698Z,19.56
2018-09-19T04:50:42.872Z,19.56
2018-09-19T04:51:43.487Z,19.56
2018-09-19T04:52:42.767Z,19.56
2018-09-19T04:53:42.673Z,19.5
2018-09-19T04:54:42.692Z,19.5
2018-09-19T04:55:42.712Z,19.5
2018-09-19T04:56:42.929Z,19.5
2018-09-19T04:57:42.693Z,19.5
2018-09-19T04:58:42.842Z,19.44
2018-09-19T04:59:42.829Z,19.5
2018-09-19T05:00:42.804Z,19.44
2018-09-19T05:01:42.762Z,19.44
2018-09-19T05:02:42.713Z,19.44
2018-09-19T05:03:42.726Z,19.44
2018-09-19T05:04:42.753Z,19.44
2018-09-19T05:05:43.333Z,19.5
2018-09-19T05:06:42.799Z,19.44
2018-09-19T05:07:42.810Z,19.44
2018-09-19T05:08:42.929Z,19.44
2018-09-19T05:09:42.844Z,19.44
2018-09-19T05:10:43.133Z,19.37
2018-09-19T05:11:42.757Z,19.37
2018-09-19T05:12:42.744Z,19.31
2018-09-19T05:13:42.734Z,19.25
2018-09-19T05:14:42.950Z,19.19
2018-09-19T05:15:42.691Z,19.12
2018-09-19T05:16:42.797Z,19.06
2018-09-19T05:17:45.007Z,19
2018-09-19T05:18:42.725Z,19
2018-09-19T05:19:42.756Z,18.94
2018-09-19T05:20:42.728Z,18.94
2018-09-19T05:21:42.731Z,18.94
2018-09-19T05:22:42.730Z,18.87
2018-09-19T05:23:42.703Z,18.94
2018-09-19T05:24:42.740Z,18.94
2018-09-19T05:25:42.715Z,18.87
2018-09-19T05:26:42.767Z,18.87
2018-09-19T05:27:42.719Z,18.87
2018-09-19T05:28:43.164Z,18.87
2018-09-19T05:29:42.747Z,18.87
2018-09-19T05:30:43.159Z,18.87
2018-09-19T05:31:43.614Z,18.75
2018-09-19T05:32:42.746Z,18.69
2018-09-19T05:33:42.729Z,18.69
2018-09-19T05:34:42.728Z,18.75
2018-09-19T05:35:42.801Z,18.69
2018-09-19T05:36:42.747Z,18.69
2018-09-19T05:37:42.745Z,18.69
2018-09-19T05:38:42.801Z,18.62
2018-09-19T05:39:42.737Z,18.69
2018-09-19T05:40:42.873Z,18.62
2018-09-19T05:41:42.899Z,18.62
2018-09-19T05:42:42.888Z,18.69
2018-09-19T05:43:42.795Z,18.62
2018-09-19T05:44:43.060Z,18.69
2018-09-19T05:45:42.984Z,18.62
2018-09-19T05:46:42.790Z,18.69
2018-09-19T05:47:42.856Z,18.69
2018-09-19T05:48:42.854Z,18.69
2018-09-19T05:49:42.756Z,18.69
2018-09-19T05:50:42.860Z,18.75
2018-09-19T05:51:42.802Z,18.69
2018-09-19T05:52:42.803Z,18.75
2018-09-19T05:53:42.746Z,18.75
2018-09-19T05:54:42.767Z,18.75
2018-09-19T05:55:42.933Z,18.75
2018-09-19T05:56:42.840Z,18.75
2018-09-19T05:57:42.907Z,18.75
2018-09-19T05:58:42.853Z,18.75
2018-09-19T05:59:43.044Z,18.75
2018-09-19T06:00:42.727Z,18.75
2018-09-19T06:01:43.049Z,18.81
2018-09-19T06:02:42.734Z,18.75
2018-09-19T06:03:42.729Z,18.81
2018-09-19T06:04:42.970Z,18.81
2018-09-19T06:05:42.754Z,18.81
2018-09-19T06:06:42.851Z,18.81
2018-09-19T06:07:42.721Z,18.87
2018-09-19T06:08:42.753Z,18.87
2018-09-19T06:09:42.988Z,18.87
2018-09-19T06:10:42.713Z,18.94
2018-09-19T06:11:42.770Z,18.94
2018-09-19T06:12:43.388Z,18.94
2018-09-19T06:13:42.973Z,19
2018-09-19T06:14:42.785Z,19
2018-09-19T06:15:42.736Z,19
2018-09-19T06:16:42.845Z,19.06
2018-09-19T06:17:42.860Z,19.06
2018-09-19T06:18:43.235Z,19.12
2018-09-19T06:19:42.737Z,19.12
2018-09-19T06:20:42.784Z,19.19
2018-09-19T06:21:42.769Z,19.19
2018-09-19T06:22:42.767Z,19.25
2018-09-19T06:23:42.921Z,19.25
2018-09-19T06:24:42.753Z,19.31
2018-09-19T06:25:42.880Z,19.31
2018-09-19T06:26:43.237Z,19.31
2018-09-19T06:27:42.850Z,19.37
2018-09-19T06:28:42.957Z,19.44
2018-09-19T06:29:43.165Z,19.44
2018-09-19T06:30:42.773Z,19.37
2018-09-19T06:31:42.859Z,19.44
2018-09-19T06:32:43.224Z,19.44
2018-09-19T06:33:42.756Z,19.44
2018-09-19T06:34:42.755Z,19.5
2018-09-19T06:35:42.770Z,19.5
2018-09-19T06:36:43.185Z,19.5
2018-09-19T06:37:42.813Z,19.56
2018-09-19T06:38:42.969Z,19.56
2018-09-19T06:39:42.801Z,19.56
2018-09-19T06:40:44.826Z,19.62
2018-09-19T06:41:42.825Z,19.62
2018-09-19T06:42:42.767Z,19.69
2018-09-19T06:43:42.938Z,19.62
2018-09-19T06:44:42.764Z,19.69
2018-09-19T06:45:43.496Z,19.69
2018-09-19T06:46:43.179Z,19.69
2018-09-19T06:47:42.758Z,19.75
2018-09-19T06:48:42.782Z,19.75
2018-09-19T06:49:42.768Z,19.75
2018-09-19T06:50:42.792Z,19.81
2018-09-19T06:51:42.819Z,19.81
2018-09-19T06:52:42.769Z,19.87
2018-09-19T06:53:42.844Z,19.87
2018-09-19T06:54:42.854Z,19.87
2018-09-19T06:55:42.788Z,19.94
2018-09-19T06:56:42.985Z,19.94
2018-09-19T06:57:43.742Z,19.94
2018-09-19T06:58:42.920Z,20
2018-09-19T06:59:43.470Z,20
2018-09-19T07:00:42.894Z,20
2018-09-19T07:01:42.881Z,20.06
2018-09-19T07:02:42.947Z,20.06
2018-09-19T07:03:43.859Z,20.06
2018-09-19T07:04:43.042Z,20.06
2018-09-19T07:05:43.210Z,20.12
2018-09-19T07:06:42.770Z,20.19
2018-09-19T07:07:42.816Z,20.19
2018-09-19T07:08:42.889Z,20.25
2018-09-19T07:09:42.754Z,20.25
2018-09-19T07:10:44.316Z,20.25
2018-09-19T07:11:43.491Z,20.31
2018-09-19T07:12:42.912Z,20.31
2018-09-19T07:13:42.811Z,20.31
2018-09-19T07:14:43.021Z,20.37
2018-09-19T07:15:43.147Z,20.37
2018-09-19T07:16:42.871Z,20.44
2018-09-19T07:17:42.816Z,20.44
2018-09-19T07:18:43.153Z,20.44
2018-09-19T07:19:42.879Z,20.44
2018-09-19T07:20:43.192Z,20.44
2018-09-19T07:21:42.945Z,20.5
2018-09-19T07:22:42.904Z,20.56
2018-09-19T07:23:43.313Z,20.56
2018-09-19T07:24:42.798Z,20.62
2018-09-19T07:25:42.883Z,20.62
2018-09-19T07:26:42.806Z,20.62
2018-09-19T07:27:42.967Z,20.62
2018-09-19T07:28:42.914Z,20.62
2018-09-19T07:29:43.004Z,20.69
2018-09-19T07:30:43.229Z,20.75
2018-09-19T07:31:42.842Z,20.75
2018-09-19T07:32:43.008Z,20.81
2018-09-19T07:33:42.813Z,20.81
2018-09-19T07:34:42.970Z,20.81
2018-09-19T07:35:42.823Z,20.81
2018-09-19T07:36:43.192Z,20.88
2018-09-19T07:37:42.806Z,20.94
2018-09-19T07:38:42.898Z,20.94
2018-09-19T07:39:42.784Z,21
2018-09-19T07:40:42.923Z,21
2018-09-19T07:41:42.854Z,21.06
2018-09-19T07:42:42.783Z,21.06
2018-09-19T07:43:42.963Z,21.06
2018-09-19T07:44:43.020Z,21.12
2018-09-19T07:45:43.086Z,21.12
2018-09-19T07:46:44.600Z,21.19
2018-09-19T07:47:42.783Z,21.19
2018-09-19T07:48:42.890Z,21.25
2018-09-19T07:49:42.775Z,21.25
2018-09-19T07:50:43.700Z,21.31
2018-09-19T07:51:42.835Z,21.31
2018-09-19T07:52:42.817Z,21.37
2018-09-19T07:53:42.899Z,21.37
2018-09-19T07:54:43.589Z,21.44
2018-09-19T07:55:42.832Z,21.44
2018-09-19T07:56:42.861Z,21.5
2018-09-19T07:57:42.881Z,21.56
2018-09-19T07:58:42.809Z,21.56
2018-09-19T07:59:42.837Z,21.56
2018-09-19T08:00:44.354Z,21.62
2018-09-19T08:01:42.830Z,21.62
2018-09-19T08:02:42.814Z,21.75
2018-09-19T08:03:43.357Z,21.75
2018-09-19T08:04:42.808Z,21.75
2018-09-19T08:05:43.173Z,21.75
2018-09-19T08:06:42.900Z,21.75
2018-09-19T08:07:42.846Z,21.81
2018-09-19T08:08:42.857Z,21.87
2018-09-19T08:09:42.908Z,21.87
2018-09-19T08:10:42.919Z,21.87
2018-09-19T08:11:42.810Z,21.94
2018-09-19T08:12:42.818Z,21.94
2018-09-19T08:13:43.054Z,22
2018-09-19T08:14:42.942Z,22.06
2018-09-19T08:15:42.810Z,22.06
2018-09-19T08:16:43.277Z,22.13
2018-09-19T08:17:42.843Z,22.13
2018-09-19T08:18:42.823Z,22.13
2018-09-19T08:19:42.852Z,22.19
2018-09-19T08:20:42.816Z,22.19
2018-09-19T08:21:43.103Z,22.25
2018-09-19T08:22:43.275Z,22.25
2018-09-19T08:23:42.900Z,22.25
2018-09-19T08:24:42.814Z,22.31
2018-09-19T08:25:42.866Z,22.37
2018-09-19T08:26:42.805Z,22.37
2018-09-19T08:27:42.821Z,22.44
2018-09-19T08:28:42.899Z,22.44
2018-09-19T08:29:42.847Z,22.44
2018-09-19T08:30:42.809Z,22.44
2018-09-19T08:31:42.861Z,22.44
2018-09-19T08:32:43.031Z,22.5
2018-09-19T08:33:42.817Z,22.5
2018-09-19T08:34:42.807Z,22.5
2018-09-19T08:35:42.874Z,22.5
2018-09-19T08:36:42.829Z,22.56
2018-09-19T08:37:42.809Z,22.62
2018-09-19T08:38:42.799Z,22.69
2018-09-19T08:39:42.825Z,22.69
2018-09-19T08:40:43.770Z,22.75
2018-09-19T08:41:43.061Z,22.81
2018-09-19T08:42:43.210Z,22.81
2018-09-19T08:43:42.872Z,22.87
2018-09-19T08:44:43.119Z,22.87
2018-09-19T08:45:43.296Z,22.87
2018-09-19T08:46:42.872Z,22.94
2018-09-19T08:47:42.846Z,23
2018-09-19T08:48:42.918Z,22.94
2018-09-19T08:49:43.155Z,23
2018-09-19T08:50:44.102Z,23.06
2018-09-19T08:51:42.895Z,23.12
2018-09-19T08:52:42.833Z,23.12
2018-09-19T08:53:42.815Z,23.12
2018-09-19T08:54:43.333Z,23.19
2018-09-19T08:55:42.961Z,23.25
2018-09-19T08:56:42.914Z,23.19
2018-09-19T08:57:42.986Z,23.25
2018-09-19T08:58:43.072Z,23.31
2018-09-19T08:59:42.911Z,23.31
2018-09-19T09:00:43.000Z,23.31
2018-09-19T09:01:42.892Z,23.31
2018-09-19T09:02:43.538Z,23.31
2018-09-19T09:03:42.877Z,23.38
2018-09-19T09:04:43.280Z,23.31
2018-09-19T09:05:43.661Z,23.31
2018-09-19T09:06:42.852Z,23.38
2018-09-19T09:07:42.845Z,23.38
2018-09-19T09:08:43.068Z,23.38
2018-09-19T09:09:42.873Z,23.38
2018-09-19T09:10:43.234Z,23.38
2018-09-19T09:11:42.834Z,23.44
2018-09-19T09:12:43.613Z,23.5
2018-09-19T09:13:42.856Z,23.56
2018-09-19T09:14:42.878Z,23.62
2018-09-19T09:15:43.269Z,23.62
2018-09-19T09:16:43.022Z,23.69
2018-09-19T09:17:42.962Z,23.75
2018-09-19T09:18:43.291Z,23.75
2018-09-19T09:19:43.254Z,23.81
2018-09-19T09:20:42.958Z,23.87
2018-09-19T09:21:42.860Z,23.87
2018-09-19T09:22:42.852Z,24
2018-09-19T09:23:42.970Z,24
2018-09-19T09:24:43.220Z,24.06
2018-09-19T09:25:42.946Z,24.12
2018-09-19T09:26:43.326Z,24.19
2018-09-19T09:27:42.858Z,24.19
2018-09-19T09:28:42.903Z,24.25
2018-09-19T09:29:42.978Z,24.25
2018-09-19T09:30:42.851Z,24.31
2018-09-19T09:31:43.083Z,24.37
2018-09-19T09:32:42.845Z,24.44
2018-09-19T09:33:42.874Z,24.44
2018-09-19T09:34:42.885Z,24.44
2018-09-19T09:35:43.199Z,24.5
2018-09-19T09:36:43.167Z,24.56
2018-09-19T09:37:42.832Z,24.56
2018-09-19T09:38:42.893Z,24.63
2018-09-19T09:39:42.867Z,24.63
2018-09-19T09:40:42.947Z,24.69
2018-09-19T09:41:42.929Z,24.69
2018-09-19T09:42:43.355Z,24.75
2018-09-19T09:43:42.954Z,24.81
2018-09-19T09:44:42.945Z,24.87
2018-09-19T09:45:42.904Z,24.87
2018-09-19T09:46:42.896Z,24.94
2018-09-19T09:47:42.901Z,25
2018-09-19T09:48:43.283Z,25.06
2018-09-19T09:49:43.071Z,25.06
2018-09-19T09:50:42.854Z,25
2018-09-19T09:51:42.941Z,25.06
2018-09-19T09:52:42.913Z,25.06
2018-09-19T09:53:42.912Z,25.06
2018-09-19T09:54:42.883Z,25.19
2018-09-19T09:55:42.934Z,25.19
2018-09-19T09:56:42.871Z,25.25
2018-09-19T09:57:42.924Z,25.31
2018-09-19T09:58:42.877Z,25.31
2018-09-19T09:59:42.886Z,25.37
2018-09-19T10:00:42.931Z,25.44
2018-09-19T10:01:43.323Z,25.44
2018-09-19T10:02:42.889Z,25.56
2018-09-19T10:03:42.913Z,25.56
2018-09-19T10:04:42.862Z,25.56
2018-09-19T10:05:43.272Z,25.62
2018-09-19T10:06:43.097Z,25.62
2018-09-19T10:07:43.137Z,25.62
2018-09-19T10:08:43.215Z,25.62
2018-09-19T10:09:42.865Z,25.62
2018-09-19T10:10:42.964Z,25.62
2018-09-19T10:11:42.913Z,25.69
2018-09-19T10:12:43.798Z,25.69
2018-09-19T10:13:43.521Z,25.75
2018-09-19T10:14:42.888Z,25.81
2018-09-19T10:15:43.230Z,25.81
2018-09-19T10:16:42.929Z,25.88
2018-09-19T10:17:42.987Z,25.88
2018-09-19T10:18:42.942Z,25.81
2018-09-19T10:19:42.915Z,25.81
2018-09-19T10:20:42.918Z,25.88
2018-09-19T10:21:43.436Z,25.88
2018-09-19T10:22:42.935Z,25.88
2018-09-19T10:23:42.943Z,25.94
2018-09-19T10:24:42.950Z,25.94
2018-09-19T10:25:43.318Z,25.94
2018-09-19T10:26:42.921Z,25.94
2018-09-19T10:27:42.928Z,26
2018-09-19T10:28:42.942Z,26.06
2018-09-19T10:29:43.930Z,26
2018-09-19T10:30:43.170Z,26.12
2018-09-19T10:31:42.947Z,26.12
2018-09-19T10:32:42.933Z,26.19
2018-09-19T10:33:43.107Z,26.19
2018-09-19T10:34:43.212Z,26.25
2018-09-19T10:35:42.929Z,26.25
2018-09-19T10:36:43.251Z,26.31
2018-09-19T10:37:43.183Z,26.37
2018-09-19T10:38:43.016Z,26.31
2018-09-19T10:39:42.986Z,26.37
2018-09-19T10:40:43.160Z,26.37
2018-09-19T10:41:42.981Z,26.37
2018-09-19T10:42:43.335Z,26.37
2018-09-19T10:43:43.095Z,26.44
2018-09-19T10:44:42.944Z,26.44
2018-09-19T10:45:42.995Z,26.44
2018-09-19T10:46:43.157Z,26.5
2018-09-19T10:47:43.215Z,26.5
2018-09-19T10:48:42.954Z,26.56
2018-09-19T10:49:43.391Z,26.56
2018-09-19T10:50:43.166Z,26.62
2018-09-19T10:51:43.126Z,26.69
2018-09-19T10:52:43.049Z,26.69
2018-09-19T10:53:43.287Z,26.69
2018-09-19T10:54:42.959Z,26.75
2018-09-19T10:55:43.017Z,26.81
2018-09-19T10:56:43.025Z,26.81
2018-09-19T10:57:43.113Z,26.87
2018-09-19T10:58:42.987Z,26.94
2018-09-19T10:59:42.975Z,26.94
2018-09-19T11:00:43.003Z,26.94
2018-09-19T11:01:42.932Z,27
2018-09-19T11:02:42.921Z,26.94
2018-09-19T11:03:42.959Z,27.06
2018-09-19T11:04:43.675Z,27.06
2018-09-19T11:05:42.978Z,27.06
2018-09-19T11:06:42.932Z,27.19
2018-09-19T11:07:43.289Z,27.19
2018-09-19T11:08:43.013Z,27.19
2018-09-19T11:09:42.989Z,27.25
2018-09-19T11:10:43.052Z,27.25
2018-09-19T11:11:43.061Z,27.25
2018-09-19T11:12:42.969Z,27.37
2018-09-19T11:13:43.020Z,27.37
2018-09-19T11:14:43.030Z,27.44
2018-09-19T11:15:43.879Z,27.44
2018-09-19T11:16:42.982Z,27.5
2018-09-19T11:17:42.948Z,27.5
2018-09-19T11:18:42.937Z,27.5
2018-09-19T11:19:42.927Z,27.5
2018-09-19T11:20:42.990Z,27.56
2018-09-19T11:21:42.955Z,27.56
2018-09-19T11:22:43.097Z,27.62
2018-09-19T11:23:42.985Z,27.69
2018-09-19T11:24:42.953Z,27.75
2018-09-19T11:25:43.098Z,27.75
2018-09-19T11:26:42.946Z,27.75
2018-09-19T11:27:48.954Z,27.81
2018-09-19T11:28:42.963Z,27.81
2018-09-19T11:29:43.011Z,27.87
2018-09-19T11:30:43.060Z,27.87
2018-09-19T11:31:42.995Z,27.87
2018-09-19T11:32:43.305Z,27.87
2018-09-19T11:33:43.502Z,27.87
2018-09-19T11:34:43.134Z,27.81
2018-09-19T11:35:43.270Z,27.81
2018-09-19T11:36:42.962Z,27.87
2018-09-19T11:37:42.963Z,27.87
2018-09-19T11:38:43.404Z,27.94
2018-09-19T11:39:43.102Z,27.94
2018-09-19T11:40:43.207Z,28
2018-09-19T11:41:42.957Z,28
2018-09-19T11:42:43.367Z,28.06
2018-09-19T11:43:44.187Z,28.06
2018-09-19T11:44:43.252Z,28.06
2018-09-19T11:45:43.445Z,28.12
2018-09-19T11:46:43.388Z,28.12
2018-09-19T11:47:43.278Z,28.12
2018-09-19T11:48:45.305Z,28.19
2018-09-19T11:49:44.411Z,28.19
2018-09-19T11:50:43.407Z,28.25
2018-09-19T11:51:43.213Z,28.31
2018-09-19T11:52:43.223Z,28.31
2018-09-19T11:53:43.320Z,28.31
2018-09-19T11:54:43.329Z,28.31
2018-09-19T11:55:43.316Z,28.31
2018-09-19T11:56:43.138Z,28.31
2018-09-19T11:57:43.896Z,28.38
2018-09-19T11:58:44.506Z,28.38
2018-09-19T11:59:43.236Z,28.38
2018-09-19T12:00:43.489Z,28.38
2018-09-19T12:01:43.369Z,28.38
2018-09-19T12:02:43.159Z,28.38
2018-09-19T12:03:43.279Z,28.44
2018-09-19T12:04:43.832Z,28.5
2018-09-19T12:05:43.508Z,28.5
2018-09-19T12:06:43.288Z,28.5
2018-09-19T12:07:43.227Z,28.5
2018-09-19T12:08:43.377Z,28.5
2018-09-19T12:09:43.622Z,28.5
2018-09-19T12:10:43.613Z,28.5
2018-09-19T12:11:43.217Z,28.5
2018-09-19T12:12:43.364Z,28.5
2018-09-19T12:13:43.213Z,28.44
2018-09-19T12:14:43.166Z,28.44
2018-09-19T12:15:43.380Z,28.5
2018-09-19T12:16:43.478Z,28.56
2018-09-19T12:17:43.474Z,28.56
2018-09-19T12:18:43.266Z,28.56
2018-09-19T12:19:43.421Z,28.56
2018-09-19T12:20:43.253Z,28.62
2018-09-19T12:21:43.719Z,28.62
2018-09-19T12:22:43.094Z,28.69
2018-09-19T12:23:43.179Z,28.69
2018-09-19T12:24:43.420Z,28.69
2018-09-19T12:25:43.265Z,28.75
2018-09-19T12:26:43.952Z,28.75
2018-09-19T12:27:43.231Z,28.81
2018-09-19T12:28:43.071Z,28.75
2018-09-19T12:29:43.052Z,28.75
2018-09-19T12:30:43.572Z,28.81
2018-09-19T12:31:43.232Z,28.81
2018-09-19T12:32:43.517Z,28.81
2018-09-19T12:33:43.206Z,28.87
2018-09-19T12:34:43.225Z,28.87
2018-09-19T12:35:43.429Z,28.94
2018-09-19T12:36:43.196Z,28.94
2018-09-19T12:37:43.941Z,28.94
2018-09-19T12:38:43.040Z,29
2018-09-19T12:39:43.774Z,28.94
2018-09-19T12:40:43.196Z,28.94
2018-09-19T12:41:43.245Z,28.87
2018-09-19T12:42:43.181Z,28.94
2018-09-19T12:43:43.075Z,28.94
2018-09-19T12:44:43.395Z,28.94
2018-09-19T12:45:43.305Z,28.94
2018-09-19T12:46:43.202Z,28.94
2018-09-19T12:47:43.107Z,28.87
2018-09-19T12:48:44.298Z,28.81
2018-09-19T12:49:43.077Z,28.81
2018-09-19T12:50:43.261Z,28.75
2018-09-19T12:51:43.195Z,28.81
2018-09-19T12:52:43.216Z,28.81
2018-09-19T12:53:43.021Z,28.87
2018-09-19T12:54:43.333Z,28.87
2018-09-19T12:55:43.136Z,28.87
2018-09-19T12:56:43.451Z,28.94
2018-09-19T12:57:43.404Z,28.94
2018-09-19T12:58:43.452Z,28.94
2018-09-19T12:59:43.267Z,28.94
2018-09-19T13:00:43.394Z,29